createdAt,value
2022-12-28T00:01:49.055Z,174.37
2022-12-28T00:04:16.371Z,173.00
2022-12-28T00:06:43.505Z,172.93
2022-12-28T00:09:12.864Z,172.00
2022-12-28T00:11:40.216Z,173.80
2022-12-28T00:14:07.733Z,170.30
2022-12-28T00:16:41.080Z,171.40
2022-12-28T00:19:14.758Z,173.03
2022-12-28T00:21:43.444Z,176.97
2022-12-28T00:24:21.671Z,170.93
2022-12-28T00:26:49.545Z,173.20
2022-12-28T00:29:17.282Z,178.70
2022-12-28T00:31:46.251Z,175.43
2022-12-28T00:34:13.706Z,171.13
2022-12-28T00:37:10.413Z,174.13
2022-12-28T00:39:29.796Z,171.57
2022-12-28T00:41:56.865Z,173.93
2022-12-28T00:44:24.048Z,172.77
2022-12-28T00:46:51.238Z,178.13
2022-12-28T00:49:18.803Z,174.87
2022-12-28T00:51:45.888Z,172.23
2022-12-28T00:54:13.023Z,175.17
2022-12-28T00:56:44.726Z,175.67
2022-12-28T00:59:12.400Z,174.03
2022-12-28T01:01:39.939Z,175.73
2022-12-28T01:04:07.190Z,177.63
2022-12-28T01:06:34.299Z,175.10
2022-12-28T01:09:01.703Z,174.03
2022-12-28T01:11:30.995Z,176.67
2022-12-28T01:14:02.770Z,171.33
2022-12-28T01:16:34.465Z,173.77
2022-12-28T01:19:06.032Z,172.60
2022-12-28T01:21:35.761Z,172.43
2022-12-28T01:24:07.883Z,171.77
2022-12-28T01:26:35.654Z,174.70
2022-12-28T01:29:03.488Z,173.80
2022-12-28T01:31:33.186Z,173.63
2022-12-28T01:34:01.013Z,174.83
2022-12-28T01:36:31.712Z,175.30
2022-12-28T01:39:03.851Z,173.50
2022-12-28T01:41:36.284Z,172.30
2022-12-28T01:44:03.334Z,175.03
2022-12-28T01:46:54.795Z,172.83
2022-12-28T01:49:29.561Z,172.77
2022-12-28T01:52:19.837Z,172.50
2022-12-28T01:54:58.052Z,170.83
2022-12-28T01:57:34.218Z,168.03
2022-12-28T02:00:08.706Z,178.37
2022-12-28T02:03:05.528Z,174.03
2022-12-28T02:05:43.602Z,170.83
2022-12-28T02:08:19.855Z,174.10
2022-12-28T02:10:47.856Z,174.43
2022-12-28T02:13:17.480Z,174.53
2022-12-28T02:15:46.102Z,169.47
2022-12-28T02:18:15.253Z,173.03
2022-12-28T02:21:09.512Z,175.70
2022-12-28T02:23:48.477Z,169.47
2022-12-28T02:26:19.223Z,170.67
2022-12-28T02:29:30.588Z,173.27
2022-12-28T02:32:47.187Z,172.70
2022-12-28T02:35:48.400Z,174.70
2022-12-28T02:38:54.640Z,171.33
2022-12-28T02:41:27.501Z,170.47
2022-12-28T02:44:00.277Z,172.30
2022-12-28T02:46:52.270Z,171.60
2022-12-28T02:49:45.891Z,174.07
2022-12-28T02:52:37.662Z,169.93
2022-12-28T02:55:59.627Z,172.57
2022-12-28T02:58:47.934Z,172.50
2022-12-28T03:01:59.782Z,174.07
2022-12-28T03:04:39.184Z,166.93
2022-12-28T03:07:30.985Z,172.70
2022-12-28T03:10:22.538Z,171.87
2022-12-28T03:13:05.773Z,170.47
2022-12-28T03:15:39.514Z,170.57
2022-12-28T03:18:38.272Z,170.07
2022-12-28T03:21:29.581Z,168.40
2022-12-28T03:24:15.699Z,167.30
2022-12-28T03:27:10.551Z,169.53
2022-12-28T03:30:15.227Z,169.67
2022-12-28T03:32:45.604Z,166.63
2022-12-28T03:35:17.212Z,167.73
2022-12-28T03:37:56.306Z,171.17
2022-12-28T03:40:49.257Z,173.43
2022-12-28T03:43:40.823Z,169.43
2022-12-28T03:46:32.084Z,166.33
2022-12-28T03:49:00.863Z,173.53
2022-12-28T03:51:32.145Z,170.43
2022-12-28T03:54:05.314Z,165.57
2022-12-28T03:56:32.673Z,168.10
2022-12-28T03:59:02.263Z,169.83
2022-12-28T04:01:38.545Z,168.73
2022-12-28T04:04:05.824Z,170.60
2022-12-28T04:06:33.606Z,169.73
2022-12-28T04:09:00.698Z,168.83
2022-12-28T04:11:30.821Z,172.43
2022-12-28T04:13:58.991Z,181.07
2022-12-28T04:16:29.329Z,166.53
2022-12-28T04:18:56.632Z,167.40
2022-12-28T04:21:23.990Z,171.17
2022-12-28T04:23:51.122Z,164.90
2022-12-28T04:26:21.844Z,168.43
2022-12-28T04:28:52.120Z,167.37
2022-12-28T04:31:25.044Z,165.77
2022-12-28T04:34:01.378Z,164.40
2022-12-28T04:36:30.312Z,167.70
2022-12-28T04:39:00.390Z,165.50
2022-12-28T04:41:27.915Z,168.03
2022-12-28T04:43:55.902Z,165.90
2022-12-28T04:46:24.977Z,166.07
2022-12-28T04:48:53.243Z,161.23
2022-12-28T04:51:26.962Z,165.87
2022-12-28T04:53:55.996Z,164.27
2022-12-28T04:56:25.283Z,169.23
2022-12-28T04:58:58.312Z,168.77
2022-12-28T05:01:26.235Z,168.47
2022-12-28T05:03:58.008Z,166.93
2022-12-28T05:06:27.889Z,160.37
2022-12-28T05:08:57.373Z,168.20
2022-12-28T05:11:29.400Z,169.20
2022-12-28T05:13:57.822Z,168.50
2022-12-28T05:16:27.795Z,165.53
2022-12-28T05:18:57.192Z,172.13
2022-12-28T05:21:28.891Z,162.67
2022-12-28T05:23:57.754Z,164.73
2022-12-28T05:26:28.843Z,167.40
2022-12-28T05:28:56.947Z,162.97
2022-12-28T05:31:24.840Z,169.33
2022-12-28T05:33:53.167Z,162.83
2022-12-28T05:36:25.297Z,161.70
2022-12-28T05:38:54.019Z,166.57
2022-12-28T05:41:28.083Z,164.97
2022-12-28T05:43:57.155Z,165.10
2022-12-28T05:46:29.164Z,165.73
2022-12-28T05:48:56.679Z,163.67
2022-12-28T05:51:27.706Z,167.97
2022-12-28T05:53:55.769Z,166.20
2022-12-28T05:56:26.835Z,165.53
2022-12-28T05:58:59.178Z,166.03
2022-12-28T06:01:33.193Z,166.53
2022-12-28T06:04:11.036Z,166.57
2022-12-28T06:06:38.235Z,166.70
2022-12-28T06:09:05.426Z,169.60
2022-12-28T06:11:32.837Z,168.90
2022-12-28T06:14:00.757Z,172.43
2022-12-28T06:16:35.212Z,166.23
2022-12-28T06:19:11.828Z,169.27
2022-12-28T06:21:40.646Z,169.03
2022-12-28T06:24:09.735Z,179.27
2022-12-28T06:26:38.941Z,176.03
2022-12-28T06:29:06.833Z,177.43
2022-12-28T06:31:39.004Z,174.03
2022-12-28T06:34:09.091Z,172.67
2022-12-28T06:36:40.137Z,166.93
2022-12-28T06:39:10.189Z,163.90
2022-12-28T06:41:37.502Z,166.87
2022-12-28T06:44:13.492Z,170.70
2022-12-28T06:46:40.908Z,165.53
2022-12-28T06:49:08.163Z,173.13
2022-12-28T06:51:40.563Z,167.57
2022-12-28T06:54:08.725Z,183.10
2022-12-28T06:56:37.466Z,170.37
2022-12-28T06:59:05.076Z,168.03
2022-12-28T07:01:40.805Z,168.77
2022-12-28T07:04:10.393Z,173.47
2022-12-28T07:06:41.541Z,173.67
2022-12-28T07:09:13.674Z,170.90
2022-12-28T07:11:42.130Z,166.70
2022-12-28T07:14:09.312Z,169.23
2022-12-28T07:19:02.687Z,177.23
2022-12-28T07:21:33.607Z,170.37
2022-12-28T07:24:02.127Z,170.47
2022-12-28T07:26:31.734Z,167.87
2022-12-28T07:29:01.928Z,167.80
2022-12-28T07:31:41.989Z,168.17
2022-12-28T07:34:12.253Z,163.17
2022-12-28T07:36:39.538Z,169.40
2022-12-28T07:39:06.641Z,173.60
2022-12-28T07:41:36.178Z,174.70
2022-12-28T07:44:06.241Z,167.80
2022-12-28T07:46:35.965Z,166.17
2022-12-28T07:49:03.872Z,162.80
2022-12-28T07:51:37.017Z,165.67
2022-12-28T07:54:04.880Z,167.63
2022-12-28T07:59:02.018Z,167.27
2022-12-28T08:01:32.516Z,167.13
2022-12-28T08:04:03.954Z,166.40
2022-12-28T08:06:34.622Z,165.77
2022-12-28T08:09:02.547Z,167.97
2022-12-28T08:11:33.350Z,175.93
2022-12-28T08:14:03.373Z,163.40
2022-12-28T08:16:35.788Z,162.97
2022-12-28T08:19:03.718Z,167.20
2022-12-28T08:21:37.234Z,170.70
2022-12-28T08:24:05.782Z,165.37
2022-12-28T08:26:36.762Z,170.33
2022-12-28T08:29:08.446Z,166.67
2022-12-28T08:31:39.384Z,167.47
2022-12-28T08:34:12.761Z,167.97
2022-12-28T08:36:39.977Z,175.53
2022-12-28T08:39:07.477Z,168.33
2022-12-28T08:41:34.673Z,165.77
2022-12-28T08:44:01.985Z,168.50
2022-12-28T08:46:34.783Z,168.07
2022-12-28T08:49:03.231Z,168.57
2022-12-28T08:51:34.586Z,169.37
2022-12-28T08:54:03.080Z,166.97
2022-12-28T08:56:34.447Z,165.47
2022-12-28T08:59:02.722Z,164.47
2022-12-28T09:01:44.092Z,169.30
2022-12-28T09:04:18.819Z,165.50
2022-12-28T09:06:46.253Z,177.23
2022-12-28T09:09:19.663Z,172.03
2022-12-28T09:11:47.778Z,170.97
2022-12-28T09:14:22.819Z,173.40
2022-12-28T09:16:53.145Z,169.90
2022-12-28T09:19:20.917Z,170.70
2022-12-28T09:21:49.443Z,168.90
2022-12-28T09:24:16.840Z,170.53
2022-12-28T09:26:44.601Z,173.60
2022-12-28T09:29:13.976Z,170.57
2022-12-28T09:31:42.130Z,169.53
2022-12-28T09:37:00.501Z,180.57
2022-12-28T09:39:27.884Z,175.37
2022-12-28T09:42:10.811Z,179.60
2022-12-28T09:45:05.289Z,177.43
2022-12-28T09:47:49.871Z,173.13
2022-12-28T09:50:17.064Z,192.63
2022-12-28T09:53:05.907Z,191.30
2022-12-28T09:55:39.001Z,183.60
2022-12-28T09:58:16.972Z,176.53
2022-12-28T10:00:59.736Z,174.43
2022-12-28T10:03:36.500Z,176.03
2022-12-28T10:06:11.551Z,174.33
2022-12-28T10:08:47.360Z,180.50
2022-12-28T10:11:23.165Z,173.80
2022-12-28T10:13:59.627Z,174.50
2022-12-28T10:16:32.950Z,176.03
2022-12-28T10:19:00.930Z,180.43
2022-12-28T10:21:33.223Z,178.80
2022-12-28T10:24:31.067Z,182.80
2022-12-28T10:26:54.692Z,179.80
2022-12-28T10:29:24.424Z,179.97
2022-12-28T10:32:09.116Z,177.63
2022-12-28T10:34:37.984Z,179.57
2022-12-28T10:37:16.481Z,180.30
2022-12-28T10:40:03.933Z,188.03
2022-12-28T10:42:41.086Z,171.03
2022-12-28T10:45:19.107Z,178.67
2022-12-28T10:47:53.809Z,174.43
2022-12-28T10:51:13.097Z,181.80
2022-12-28T10:53:47.262Z,173.80
2022-12-28T10:56:14.277Z,177.20
2022-12-28T10:58:44.760Z,176.30
2022-12-28T11:01:14.995Z,178.63
2022-12-28T11:03:57.408Z,179.27
2022-12-28T11:06:50.868Z,172.73
2022-12-28T11:09:31.744Z,180.47
2022-12-28T11:12:25.784Z,178.60
2022-12-28T11:14:54.293Z,178.07
2022-12-28T11:17:29.585Z,176.97
2022-12-28T11:20:04.041Z,179.47
2022-12-28T11:22:32.017Z,186.20
2022-12-28T11:25:01.343Z,182.00
2022-12-28T11:27:28.919Z,172.67
2022-12-28T11:29:56.531Z,179.47
2022-12-28T11:32:52.519Z,181.07
2022-12-28T11:35:25.022Z,185.67
2022-12-28T11:37:55.541Z,184.53
2022-12-28T11:40:44.718Z,180.37
2022-12-28T11:43:30.450Z,179.17
2022-12-28T11:46:02.713Z,183.90
2022-12-28T11:48:41.941Z,186.10
2022-12-28T11:51:28.862Z,179.97
2022-12-28T11:54:04.723Z,180.30
2022-12-28T11:56:43.988Z,184.20
2022-12-28T11:59:25.637Z,193.53
2022-12-28T12:02:21.132Z,186.93
2022-12-28T12:04:48.298Z,183.20
2022-12-28T12:07:39.895Z,178.70
2022-12-28T12:10:26.337Z,184.30
2022-12-28T12:12:53.734Z,185.70
2022-12-28T12:15:47.570Z,182.90
2022-12-28T12:18:30.156Z,181.63
2022-12-28T12:21:10.246Z,177.97
2022-12-28T12:23:55.992Z,184.30
2022-12-28T12:26:29.603Z,178.80
2022-12-28T12:29:06.972Z,177.00
2022-12-28T12:31:47.576Z,178.17
2022-12-28T12:34:45.605Z,178.60
2022-12-28T12:37:48.221Z,184.97
2022-12-28T12:40:42.555Z,179.20
2022-12-28T12:43:30.907Z,176.80
2022-12-28T12:46:18.592Z,187.90
2022-12-28T12:49:33.657Z,185.40
2022-12-28T12:52:09.888Z,185.37
2022-12-28T12:54:55.816Z,190.00
2022-12-28T12:57:54.534Z,191.27
2022-12-28T13:00:24.220Z,189.97
2022-12-28T13:03:27.618Z,188.87
2022-12-28T13:05:57.470Z,187.20
2022-12-28T13:08:35.760Z,181.47
2022-12-28T13:11:03.149Z,186.67
2022-12-28T13:13:34.905Z,174.37
2022-12-28T13:16:11.189Z,185.57
2022-12-28T13:18:46.251Z,175.40
2022-12-28T13:21:20.707Z,187.60
2022-12-28T13:23:48.569Z,181.23
2022-12-28T13:26:17.281Z,174.97
2022-12-28T13:29:09.716Z,183.07
2022-12-28T13:31:39.842Z,182.70
2022-12-28T13:34:28.627Z,174.00
2022-12-28T13:37:02.600Z,186.53
2022-12-28T13:39:41.547Z,179.30
2022-12-28T13:42:20.086Z,181.00
2022-12-28T13:44:53.793Z,177.33
2022-12-28T13:47:42.188Z,181.47
2022-12-28T13:50:28.387Z,176.20
2022-12-28T13:53:06.009Z,182.40
2022-12-28T13:55:43.075Z,178.33
2022-12-28T13:58:20.142Z,179.30
2022-12-28T14:00:50.242Z,174.30
2022-12-28T14:03:19.281Z,177.50
2022-12-28T14:06:00.201Z,177.33
2022-12-28T14:08:33.637Z,180.67
2022-12-28T14:11:01.876Z,179.93
2022-12-28T14:13:35.275Z,178.43
2022-12-28T14:16:04.482Z,175.90
2022-12-28T14:18:33.767Z,178.93
2022-12-28T14:21:02.196Z,177.23
2022-12-28T14:23:38.439Z,177.23
2022-12-28T14:26:10.058Z,180.17
2022-12-28T14:28:44.173Z,186.43
2022-12-28T14:31:14.284Z,175.93
2022-12-28T14:34:03.429Z,180.57
2022-12-28T14:36:42.803Z,184.50
2022-12-28T14:39:44.576Z,177.60
2022-12-28T14:42:23.380Z,182.17
2022-12-28T14:47:46.353Z,183.20
2022-12-28T14:50:29.259Z,177.10
2022-12-28T14:53:20.108Z,179.60
2022-12-28T14:55:57.526Z,177.70
2022-12-28T14:58:42.071Z,184.30
2022-12-28T15:00:25.219Z,173.33
2022-12-28T15:01:10.061Z,173.43
2022-12-28T15:04:04.548Z,175.43
2022-12-28T15:06:34.193Z,180.50
2022-12-28T15:09:06.517Z,170.27
2022-12-28T15:11:33.703Z,179.17
2022-12-28T15:14:00.816Z,172.40
2022-12-28T15:16:28.072Z,176.00
2022-12-28T15:18:55.240Z,177.03
2022-12-28T15:21:23.949Z,175.97
2022-12-28T15:23:52.663Z,172.27
2022-12-28T15:26:20.902Z,175.03
2022-12-28T15:28:47.964Z,172.60
2022-12-28T15:31:18.553Z,175.43
2022-12-28T15:33:46.286Z,173.77
2022-12-28T15:36:18.208Z,176.83
2022-12-28T15:38:49.248Z,178.90
2022-12-28T15:41:36.774Z,174.50
2022-12-28T15:44:04.647Z,172.60
2022-12-28T15:46:32.256Z,174.60
2022-12-28T15:49:02.075Z,171.93
2022-12-28T15:51:29.158Z,173.77
2022-12-28T15:53:56.229Z,175.80
2022-12-28T15:56:26.864Z,172.57
2022-12-28T15:58:56.483Z,178.37
2022-12-28T16:01:26.775Z,178.13
2022-12-28T16:03:56.581Z,179.47
2022-12-28T16:06:25.443Z,177.60
2022-12-28T16:08:58.594Z,178.53
2022-12-28T16:11:29.404Z,180.30
2022-12-28T16:14:05.493Z,177.77
2022-12-28T16:16:38.301Z,180.93
2022-12-28T16:19:07.164Z,185.57
2022-12-28T16:21:35.527Z,177.80
2022-12-28T16:24:02.725Z,178.37
2022-12-28T16:26:29.888Z,174.87
2022-12-28T16:28:59.382Z,177.23
2022-12-28T16:31:33.909Z,177.83
2022-12-28T16:34:09.893Z,181.47
2022-12-28T16:36:37.019Z,179.93
2022-12-28T16:39:08.803Z,180.03
2022-12-28T16:41:38.404Z,178.20
2022-12-28T16:44:12.443Z,178.37
2022-12-28T16:46:39.648Z,174.20
2022-12-28T16:49:06.811Z,207.40
2022-12-28T16:51:33.904Z,179.67
2022-12-28T16:54:01.014Z,187.63
2022-12-28T16:56:28.167Z,213.60
2022-12-28T16:59:00.636Z,182.37
2022-12-28T17:01:28.401Z,197.00
2022-12-28T17:04:01.715Z,221.53
2022-12-28T17:06:30.952Z,223.93
2022-12-28T17:09:01.556Z,184.50
2022-12-28T17:11:28.945Z,179.33
2022-12-28T17:14:09.859Z,188.07
2022-12-28T17:16:37.426Z,180.13
2022-12-28T17:19:05.583Z,185.23
2022-12-28T17:21:35.183Z,184.73
2022-12-28T17:24:03.062Z,190.07
2022-12-28T17:26:30.654Z,180.37
2022-12-28T17:28:58.679Z,180.67
2022-12-28T17:31:26.033Z,181.23
2022-12-28T17:34:00.508Z,180.37
2022-12-28T17:36:27.986Z,182.40
2022-12-28T17:38:55.399Z,185.27
2022-12-28T17:41:27.696Z,187.73
2022-12-28T17:43:58.503Z,184.97
2022-12-28T17:46:28.305Z,183.60
2022-12-28T17:48:57.758Z,191.40
2022-12-28T17:51:26.605Z,186.23
2022-12-28T17:53:56.534Z,185.27
2022-12-28T17:56:23.816Z,186.67
2022-12-28T17:58:58.731Z,190.70
2022-12-28T18:01:30.521Z,191.70
2022-12-28T18:03:58.054Z,185.33
2022-12-28T18:06:25.964Z,181.13
2022-12-28T18:08:53.087Z,183.73
2022-12-28T18:11:20.261Z,185.47
2022-12-28T18:13:48.304Z,188.83
2022-12-28T18:16:19.036Z,189.63
2022-12-28T18:18:46.697Z,199.70
2022-12-28T18:21:21.740Z,190.30
2022-12-28T18:23:52.112Z,184.53
2022-12-28T18:26:23.216Z,183.73
2022-12-28T18:28:50.716Z,185.90
2022-12-28T18:31:18.262Z,183.23
2022-12-28T18:33:45.649Z,188.73
2022-12-28T18:36:17.756Z,190.67
2022-12-28T18:38:46.386Z,198.40
2022-12-28T18:41:17.764Z,192.97
2022-12-28T18:43:44.989Z,187.13
2022-12-28T18:46:12.290Z,187.57
2022-12-28T18:48:41.260Z,185.43
2022-12-28T18:51:11.123Z,184.60
2022-12-28T18:53:39.498Z,183.60
2022-12-28T18:56:11.356Z,186.53
2022-12-28T18:58:40.584Z,182.43
2022-12-28T19:01:13.064Z,180.37
2022-12-28T19:03:59.048Z,194.50
2022-12-28T19:06:26.815Z,190.00
2022-12-28T19:08:58.961Z,187.70
2022-12-28T19:11:27.020Z,191.77
2022-12-28T19:13:54.120Z,185.17
2022-12-28T19:16:28.544Z,183.43
2022-12-28T19:18:58.355Z,186.77
2022-12-28T19:21:29.290Z,204.50
2022-12-28T19:24:00.763Z,213.53
2022-12-28T19:26:27.807Z,211.70
2022-12-28T19:28:55.108Z,205.03
2022-12-28T19:31:22.257Z,215.13
2022-12-28T19:33:49.546Z,202.23
2022-12-28T19:36:16.634Z,216.37
2022-12-28T19:38:43.842Z,225.87
2022-12-28T19:41:14.752Z,241.70
2022-12-28T19:43:43.571Z,204.77
2022-12-28T19:46:13.865Z,221.43
2022-12-28T19:48:41.499Z,188.87
2022-12-28T19:51:09.305Z,193.20
2022-12-28T19:53:37.495Z,181.90
2022-12-28T19:56:07.496Z,191.47
2022-12-28T19:58:36.451Z,187.70
2022-12-28T20:01:22.332Z,184.40
2022-12-28T20:03:49.633Z,186.80
2022-12-28T20:06:21.929Z,191.77
2022-12-28T20:08:52.061Z,188.80
2022-12-28T20:11:20.247Z,183.40
2022-12-28T20:13:57.582Z,187.50
2022-12-28T20:16:30.546Z,183.80
2022-12-28T20:18:58.239Z,188.83
2022-12-28T20:21:26.233Z,195.77
2022-12-28T20:23:54.678Z,188.13
2022-12-28T20:26:25.120Z,188.83
2022-12-28T20:28:52.489Z,192.63
2022-12-28T20:31:20.214Z,223.70
2022-12-28T20:33:47.814Z,204.07
2022-12-28T20:36:21.282Z,189.67
2022-12-28T20:38:49.427Z,197.23
2022-12-28T20:41:38.856Z,186.90
2022-12-28T20:44:13.341Z,193.77
2022-12-28T20:46:43.617Z,193.10
2022-12-28T20:49:11.911Z,194.40
2022-12-28T20:51:39.293Z,195.13
2022-12-28T20:54:06.540Z,197.90
2022-12-28T20:56:38.272Z,183.50
2022-12-28T20:59:06.124Z,188.53
2022-12-28T21:01:36.355Z,205.07
2022-12-28T21:04:04.874Z,225.37
2022-12-28T21:06:32.432Z,194.50
2022-12-28T21:08:59.593Z,199.83
2022-12-28T21:11:28.796Z,193.83
2022-12-28T21:13:55.854Z,186.53
2022-12-28T21:16:23.066Z,189.33
2022-12-28T21:18:50.828Z,186.90
2022-12-28T21:21:21.751Z,186.57
2022-12-28T21:23:49.322Z,185.30
2022-12-28T21:26:19.609Z,186.87
2022-12-28T21:28:47.234Z,190.57
2022-12-28T21:31:14.731Z,186.43
2022-12-28T21:33:42.332Z,188.97
2022-12-28T21:36:17.117Z,188.53
2022-12-28T21:38:46.989Z,183.37
2022-12-28T21:41:42.588Z,184.83
2022-12-28T21:44:13.237Z,187.17
2022-12-28T21:46:40.939Z,184.20
2022-12-28T21:49:09.214Z,184.47
2022-12-28T21:51:38.581Z,183.13
2022-12-28T21:54:15.680Z,186.83
2022-12-28T21:56:46.921Z,194.80
2022-12-28T21:59:14.080Z,189.27
2022-12-28T22:02:01.355Z,184.37
2022-12-28T22:04:47.515Z,185.43
2022-12-28T22:07:18.140Z,181.33
2022-12-28T22:10:03.959Z,183.53
2022-12-28T22:12:37.519Z,182.53
2022-12-28T22:15:22.996Z,184.90
2022-12-28T22:17:54.232Z,187.77
2022-12-28T22:20:22.676Z,179.30
2022-12-28T22:22:50.321Z,183.27
2022-12-28T22:25:17.682Z,184.93
2022-12-28T22:27:44.772Z,184.97
2022-12-28T22:30:12.788Z,184.03
2022-12-28T22:32:40.393Z,188.00
2022-12-28T22:35:09.187Z,184.37
2022-12-28T22:37:36.992Z,184.10
2022-12-28T22:40:06.035Z,184.13
2022-12-28T22:42:33.152Z,181.10
2022-12-28T22:45:00.289Z,182.47
2022-12-28T22:47:28.200Z,186.93
2022-12-28T22:49:55.531Z,182.43
2022-12-28T22:52:22.692Z,187.10
2022-12-28T22:54:51.106Z,183.60
2022-12-28T22:57:18.160Z,183.50
2022-12-28T22:59:47.376Z,179.03
2022-12-28T23:02:14.850Z,178.47
2022-12-28T23:04:42.191Z,182.40
2022-12-28T23:07:09.346Z,184.10
2022-12-28T23:09:36.696Z,179.27
2022-12-28T23:12:04.149Z,181.07
2022-12-28T23:14:49.624Z,185.33
2022-12-28T23:17:17.430Z,179.23
2022-12-28T23:20:04.950Z,180.97
2022-12-28T23:22:52.707Z,182.23
2022-12-28T23:25:46.668Z,181.30
2022-12-28T23:28:16.164Z,181.13
2022-12-28T23:30:48.695Z,181.83
2022-12-28T23:33:17.334Z,180.97
2022-12-28T23:35:45.289Z,181.20
2022-12-28T23:38:12.658Z,181.10
2022-12-28T23:40:41.221Z,183.17
2022-12-28T23:43:08.652Z,179.00
2022-12-28T23:45:36.550Z,185.20
2022-12-28T23:48:04.846Z,186.10
2022-12-28T23:50:32.104Z,184.07
2022-12-28T23:52:59.212Z,178.80
2022-12-28T23:55:26.380Z,182.80
2022-12-28T23:57:53.475Z,185.07
